createdAt,value
2023-04-28T00:00:22.621Z,26.27
2023-04-28T00:01:22.587Z,26.24
2023-04-28T00:02:22.656Z,26.28
2023-04-28T00:03:22.769Z,26.33
2023-04-28T00:04:23.436Z,26.30
2023-04-28T00:05:22.945Z,26.33
2023-04-28T00:06:22.812Z,26.27
2023-04-28T00:07:22.886Z,26.22
2023-04-28T00:08:22.936Z,26.15
2023-04-28T00:09:23.002Z,26.14
2023-04-28T00:10:23.063Z,26.19
2023-04-28T00:11:23.124Z,26.21
2023-04-28T00:12:23.165Z,26.21
2023-04-28T00:13:23.227Z,26.20
2023-04-28T00:14:23.291Z,26.18
2023-04-28T00:15:23.322Z,26.19
2023-04-28T00:16:23.420Z,26.32
2023-04-28T00:17:23.547Z,26.31
2023-04-28T00:18:23.567Z,26.26
2023-04-28T00:19:23.555Z,26.16
2023-04-28T00:20:23.594Z,26.14
2023-04-28T00:21:23.676Z,26.14
2023-04-28T00:22:23.700Z,26.14
2023-04-28T00:23:23.769Z,26.23
2023-04-28T00:24:23.828Z,26.21
2023-04-28T00:25:23.860Z,26.31
2023-04-28T00:26:23.927Z,26.27
2023-04-28T00:27:23.980Z,26.32
2023-04-28T00:29:24.036Z,26.16
2023-04-28T00:30:24.026Z,26.17
2023-04-28T00:31:24.020Z,26.23
2023-04-28T00:32:24.014Z,26.25
2023-04-28T00:33:24.010Z,26.29
2023-04-28T00:34:23.994Z,26.20
2023-04-28T00:35:23.969Z,26.16
2023-04-28T00:36:23.970Z,26.12
2023-04-28T00:37:23.979Z,26.12
2023-04-28T00:38:23.968Z,26.15
2023-04-28T00:39:23.979Z,26.18
2023-04-28T00:40:23.959Z,26.16
2023-04-28T00:41:23.932Z,26.13
2023-04-28T00:42:23.940Z,26.13
2023-04-28T00:43:23.934Z,26.23
2023-04-28T00:44:23.947Z,26.19
2023-04-28T00:45:23.921Z,26.20
2023-04-28T00:46:23.930Z,26.18
2023-04-28T00:47:23.937Z,26.15
2023-04-28T00:48:23.898Z,26.17
2023-04-28T00:49:23.877Z,26.29
2023-04-28T00:50:23.872Z,26.27
2023-04-28T00:51:23.887Z,26.24
2023-04-28T00:52:23.890Z,26.20
2023-04-28T00:53:23.868Z,26.18
2023-04-28T00:54:23.853Z,26.13
2023-04-28T00:55:23.859Z,26.21
2023-04-28T00:56:23.847Z,26.25
2023-04-28T00:57:23.836Z,26.18
2023-04-28T00:58:23.838Z,26.17
2023-04-28T00:59:23.842Z,26.15
2023-04-28T01:00:23.832Z,26.12
2023-04-28T01:01:23.874Z,26.12
2023-04-28T01:02:23.854Z,26.15
2023-04-28T01:03:24.033Z,26.15
2023-04-28T01:04:23.839Z,26.16
2023-04-28T01:05:23.797Z,26.14
2023-04-28T01:06:23.763Z,26.16
2023-04-28T01:07:23.781Z,26.15
2023-04-28T01:08:23.816Z,26.15
2023-04-28T01:09:23.876Z,26.15
2023-04-28T01:10:23.940Z,26.18
2023-04-28T01:11:23.988Z,26.22
2023-04-28T01:12:24.057Z,26.22
2023-04-28T01:13:24.109Z,26.28
2023-04-28T01:14:24.179Z,26.26
2023-04-28T01:15:24.233Z,26.14
2023-04-28T01:16:24.308Z,26.18
2023-04-28T01:17:24.348Z,26.22
2023-04-28T01:18:24.418Z,26.23
2023-04-28T01:19:24.476Z,26.14
2023-04-28T01:20:24.540Z,26.17
2023-04-28T01:21:24.584Z,26.18
2023-04-28T01:22:24.657Z,26.18
2023-04-28T01:23:24.711Z,26.16
2023-04-28T01:24:24.765Z,26.19
2023-04-28T01:25:24.831Z,26.16
2023-04-28T01:26:24.881Z,26.13
2023-04-28T01:27:24.933Z,26.19
2023-04-28T01:28:25.027Z,26.17
2023-04-28T01:29:25.064Z,26.20
2023-04-28T01:30:25.141Z,26.14
2023-04-28T01:31:25.199Z,26.19
2023-04-28T01:32:25.260Z,26.24
2023-04-28T01:33:25.297Z,26.22
2023-04-28T01:34:25.354Z,26.18
2023-04-28T01:35:25.405Z,26.19
2023-04-28T01:36:25.505Z,26.22
2023-04-28T01:37:25.533Z,26.20
2023-04-28T01:38:25.597Z,26.20
2023-04-28T01:39:25.668Z,26.18
2023-04-28T01:40:25.708Z,26.17
2023-04-28T01:41:25.769Z,26.23
2023-04-28T01:42:25.854Z,26.26
2023-04-28T01:43:25.893Z,26.21
2023-04-28T01:44:25.960Z,26.25
2023-04-28T01:45:25.994Z,26.22
2023-04-28T01:46:26.105Z,26.24
2023-04-28T01:47:26.179Z,26.21
2023-04-28T01:48:26.167Z,26.18
2023-04-28T01:49:26.227Z,26.18
2023-04-28T01:50:26.303Z,26.15
2023-04-28T01:51:26.345Z,26.17
2023-04-28T01:52:26.412Z,26.24
2023-04-28T01:53:26.475Z,26.23
2023-04-28T01:54:26.524Z,26.25
2023-04-28T01:55:26.599Z,26.24
2023-04-28T01:56:26.650Z,26.21
2023-04-28T01:57:26.695Z,26.19
2023-04-28T01:58:26.771Z,26.18
2023-04-28T01:59:26.822Z,26.16
2023-04-28T02:00:26.905Z,26.14
2023-04-28T02:01:26.986Z,26.18
2023-04-28T02:02:27.086Z,26.22
2023-04-28T02:03:27.164Z,26.20
2023-04-28T02:04:27.177Z,26.18
2023-04-28T02:05:27.196Z,26.20
2023-04-28T02:06:27.242Z,26.18
2023-04-28T02:07:27.294Z,26.13
2023-04-28T02:08:27.360Z,26.20
2023-04-28T02:09:27.419Z,26.18
2023-04-28T02:10:27.496Z,26.18
2023-04-28T02:11:27.510Z,26.23
2023-04-28T02:12:27.585Z,26.24
2023-04-28T02:13:27.622Z,26.21
2023-04-28T02:14:27.710Z,26.21
2023-04-28T02:15:27.765Z,26.21
2023-04-28T02:16:27.851Z,26.20
2023-04-28T02:17:27.951Z,26.22
2023-04-28T02:18:27.911Z,26.23
2023-04-28T02:19:27.968Z,26.33
2023-04-28T02:20:28.071Z,26.25
2023-04-28T02:21:28.079Z,26.20
2023-04-28T02:22:28.154Z,26.20
2023-04-28T02:23:28.208Z,26.20
2023-04-28T02:24:28.279Z,26.22
2023-04-28T02:25:28.335Z,26.23
2023-04-28T02:26:28.390Z,26.29
2023-04-28T02:27:28.457Z,26.22
2023-04-28T02:28:28.501Z,26.22
2023-04-28T02:29:28.580Z,26.27
2023-04-28T02:30:28.606Z,26.20
2023-04-28T02:31:28.688Z,26.24
2023-04-28T02:32:28.802Z,26.22
2023-04-28T02:33:28.803Z,26.26
2023-04-28T02:34:28.870Z,26.25
2023-04-28T02:35:28.929Z,26.21
2023-04-28T02:36:28.972Z,26.20
2023-04-28T02:37:29.026Z,26.20
2023-04-28T02:38:29.096Z,26.26
2023-04-28T02:39:29.151Z,26.23
2023-04-28T02:40:29.217Z,26.18
2023-04-28T02:41:29.269Z,26.24
2023-04-28T02:42:29.339Z,26.26
2023-04-28T02:43:29.382Z,26.31
2023-04-28T02:44:29.453Z,26.35
2023-04-28T02:45:29.511Z,26.32
2023-04-28T02:46:29.601Z,26.35
2023-04-28T02:47:29.651Z,26.33
2023-04-28T02:48:29.684Z,26.29
2023-04-28T02:49:29.752Z,26.34
2023-04-28T02:50:29.810Z,26.25
2023-04-28T02:51:29.862Z,26.27
2023-04-28T02:52:29.941Z,26.30
2023-04-28T02:53:29.981Z,26.29
2023-04-28T02:54:30.044Z,26.27
2023-04-28T02:55:30.101Z,26.27
2023-04-28T02:56:30.175Z,26.26
2023-04-28T02:57:30.227Z,26.24
2023-04-28T02:58:30.281Z,26.28
2023-04-28T02:59:30.341Z,26.34
2023-04-28T03:00:30.386Z,26.29
2023-04-28T03:01:30.500Z,26.26
2023-04-28T03:02:30.620Z,26.26
2023-04-28T03:03:30.700Z,26.31
2023-04-28T03:04:30.683Z,26.25
2023-04-28T03:05:30.684Z,26.36
2023-04-28T03:06:30.743Z,26.33
2023-04-28T03:07:30.787Z,26.31
2023-04-28T03:08:30.865Z,26.35
2023-04-28T03:09:30.897Z,26.28
2023-04-28T03:10:30.976Z,26.29
2023-04-28T03:11:31.021Z,26.38
2023-04-28T03:12:31.085Z,26.34
2023-04-28T03:13:31.151Z,26.30
2023-04-28T03:14:31.185Z,26.32
2023-04-28T03:15:31.238Z,26.32
2023-04-28T03:16:31.304Z,26.32
2023-04-28T03:17:31.442Z,26.32
2023-04-28T03:18:31.394Z,26.30
2023-04-28T03:19:31.462Z,26.29
2023-04-28T03:20:31.528Z,26.29
2023-04-28T03:21:31.589Z,26.30
2023-04-28T03:22:31.662Z,26.32
2023-04-28T03:23:31.692Z,26.34
2023-04-28T03:24:31.757Z,26.36
2023-04-28T03:25:31.820Z,26.33
2023-04-28T03:26:31.863Z,26.31
2023-04-28T03:27:31.926Z,26.31
2023-04-28T03:28:31.993Z,26.29
2023-04-28T03:29:32.046Z,26.29
2023-04-28T03:30:32.103Z,26.28
2023-04-28T03:31:32.184Z,26.29
2023-04-28T03:32:32.268Z,26.32
2023-04-28T03:33:32.285Z,26.29
2023-04-28T03:34:32.338Z,26.28
2023-04-28T03:35:32.372Z,26.32
2023-04-28T03:36:32.456Z,26.34
2023-04-28T03:37:32.506Z,26.34
2023-04-28T03:38:32.561Z,26.27
2023-04-28T03:39:32.611Z,26.32
2023-04-28T03:40:32.675Z,26.33
2023-04-28T03:41:32.736Z,26.31
2023-04-28T03:42:32.776Z,26.32
2023-04-28T03:43:32.847Z,26.35
2023-04-28T03:44:32.913Z,26.31
2023-04-28T03:45:32.996Z,26.28
2023-04-28T03:46:33.030Z,26.27
2023-04-28T03:47:33.071Z,26.30
2023-04-28T03:48:33.115Z,26.28
2023-04-28T03:49:33.180Z,26.27
2023-04-28T03:50:33.276Z,26.32
2023-04-28T03:51:33.322Z,26.29
2023-04-28T03:52:33.373Z,26.31
2023-04-28T03:53:33.427Z,26.35
2023-04-28T03:54:33.478Z,26.35
2023-04-28T03:55:33.523Z,26.28
2023-04-28T03:56:33.599Z,26.30
2023-04-28T03:57:33.714Z,26.31
2023-04-28T03:58:33.706Z,26.29
2023-04-28T03:59:33.776Z,26.30
2023-04-28T04:00:33.830Z,26.29
2023-04-28T04:01:33.890Z,26.27
2023-04-28T04:02:34.095Z,26.32
2023-04-28T04:03:34.192Z,26.33
2023-04-28T04:04:34.337Z,26.27
2023-04-28T04:05:34.146Z,26.34
2023-04-28T04:06:34.196Z,26.31
2023-04-28T04:07:34.229Z,26.29
2023-04-28T04:08:34.306Z,26.32
2023-04-28T04:09:34.346Z,26.30
2023-04-28T04:10:34.406Z,26.27
2023-04-28T04:11:34.442Z,26.28
2023-04-28T04:12:34.497Z,26.28
2023-04-28T04:13:34.569Z,26.34
2023-04-28T04:14:34.616Z,26.37
2023-04-28T04:15:34.724Z,26.31
2023-04-28T04:16:34.741Z,26.29
2023-04-28T04:17:34.814Z,26.33
2023-04-28T04:18:34.848Z,26.29
2023-04-28T04:19:34.892Z,26.28
2023-04-28T04:20:34.973Z,26.29
2023-04-28T04:21:35.028Z,26.30
2023-04-28T04:22:35.085Z,26.29
2023-04-28T04:23:35.114Z,26.30
2023-04-28T04:24:35.181Z,26.28
2023-04-28T04:25:35.248Z,26.32
2023-04-28T04:26:35.294Z,26.35
2023-04-28T04:27:35.359Z,26.34
2023-04-28T04:28:35.393Z,26.34
2023-04-28T04:29:35.476Z,26.34
2023-04-28T04:30:35.512Z,26.37
2023-04-28T04:31:35.640Z,26.34
2023-04-28T04:32:35.716Z,26.29
2023-04-28T04:33:35.702Z,26.29
2023-04-28T04:34:35.744Z,26.35
2023-04-28T04:35:35.818Z,26.35
2023-04-28T04:36:35.872Z,26.38
2023-04-28T04:37:35.938Z,26.38
2023-04-28T04:38:35.988Z,26.35
2023-04-28T04:39:36.046Z,26.33
2023-04-28T04:40:36.106Z,26.34
2023-04-28T04:41:36.171Z,26.34
2023-04-28T04:42:36.206Z,26.35
2023-04-28T04:43:36.278Z,26.36
2023-04-28T04:44:36.349Z,26.36
2023-04-28T04:45:36.398Z,26.38
2023-04-28T04:46:36.463Z,26.36
2023-04-28T04:47:36.538Z,26.39
2023-04-28T04:48:36.593Z,26.36
2023-04-28T04:49:36.616Z,26.37
2023-04-28T04:50:36.677Z,26.36
2023-04-28T04:51:36.731Z,26.39
2023-04-28T04:52:36.772Z,26.43
2023-04-28T04:53:36.820Z,26.42
2023-04-28T04:54:36.876Z,26.39
2023-04-28T04:55:36.926Z,26.40
2023-04-28T04:56:36.997Z,26.46
2023-04-28T04:57:37.042Z,26.47
2023-04-28T04:58:37.112Z,26.45
2023-04-28T04:59:37.158Z,26.49
2023-04-28T05:00:37.213Z,26.46
2023-04-28T05:01:37.304Z,26.50
2023-04-28T05:02:37.495Z,26.41
2023-04-28T05:03:37.566Z,26.41
2023-04-28T05:04:37.578Z,26.38
2023-04-28T05:05:37.520Z,26.43
2023-04-28T05:06:37.565Z,26.43
2023-04-28T05:07:37.654Z,26.40
2023-04-28T05:08:37.684Z,26.42
2023-04-28T05:09:37.739Z,26.44
2023-04-28T05:10:37.808Z,26.44
2023-04-28T05:11:37.848Z,26.50
2023-04-28T05:12:37.891Z,26.47
2023-04-28T05:13:38.034Z,26.46
2023-04-28T05:14:38.014Z,26.42
2023-04-28T05:15:38.068Z,26.52
2023-04-28T05:16:38.173Z,26.52
2023-04-28T05:17:38.227Z,26.49
2023-04-28T05:18:38.263Z,26.47
2023-04-28T05:19:38.302Z,26.48
2023-04-28T05:20:38.367Z,26.46
2023-04-28T05:21:38.431Z,26.43
2023-04-28T05:22:38.510Z,26.47
2023-04-28T05:23:38.559Z,26.46
2023-04-28T05:24:38.574Z,26.51
2023-04-28T05:25:38.636Z,26.52
2023-04-28T05:26:38.760Z,26.47
2023-04-28T05:27:38.748Z,26.62
2023-04-28T05:28:38.803Z,26.89
2023-04-28T05:29:38.868Z,27.20
2023-04-28T05:30:38.919Z,27.41
2023-04-28T05:31:39.390Z,27.60
2023-04-28T05:32:39.153Z,27.54
2023-04-28T05:33:39.089Z,27.48
2023-04-28T05:34:39.141Z,27.40
2023-04-28T05:35:39.340Z,27.73
2023-04-28T05:36:39.272Z,28.04
2023-04-28T05:37:39.321Z,27.97
2023-04-28T05:38:39.381Z,28.45
2023-04-28T05:39:39.436Z,28.17
2023-04-28T05:40:39.490Z,28.45
2023-04-28T05:41:39.563Z,28.94
2023-04-28T05:42:39.655Z,28.39
2023-04-28T05:43:39.675Z,28.32
2023-04-28T05:44:41.803Z,28.07
2023-04-28T05:45:39.750Z,28.01
2023-04-28T05:46:39.866Z,27.88
2023-04-28T05:47:39.770Z,27.70
2023-04-28T05:48:39.737Z,27.89
2023-04-28T05:49:39.714Z,27.61
2023-04-28T05:50:39.759Z,27.95
2023-04-28T05:51:39.706Z,27.81
2023-04-28T05:52:39.694Z,27.79
2023-04-28T05:53:39.697Z,27.77
2023-04-28T05:54:39.733Z,27.96
2023-04-28T05:55:39.681Z,27.97
2023-04-28T05:56:39.658Z,27.80
2023-04-28T05:57:49.825Z,28.41
2023-04-28T05:58:40.671Z,28.43
2023-04-28T05:59:39.653Z,28.86
2023-04-28T06:00:39.644Z,29.30
2023-04-28T06:01:39.653Z,28.81
2023-04-28T06:02:39.745Z,28.61
2023-04-28T06:03:39.830Z,28.32
2023-04-28T06:04:39.828Z,28.34
2023-04-28T06:05:39.870Z,28.49
2023-04-28T06:06:39.885Z,28.71
2023-04-28T06:07:39.866Z,28.68
2023-04-28T06:08:39.652Z,28.67
2023-04-28T06:09:39.695Z,28.98
2023-04-28T06:10:39.768Z,29.31
2023-04-28T06:11:39.815Z,29.11
2023-04-28T06:12:39.862Z,29.18
2023-04-28T06:13:39.881Z,29.32
2023-04-28T06:14:39.883Z,29.42
2023-04-28T06:15:39.950Z,29.86
2023-04-28T06:16:39.921Z,29.62
2023-04-28T06:17:40.366Z,29.63
2023-04-28T06:18:39.896Z,29.54
2023-04-28T06:19:39.944Z,29.77
2023-04-28T06:20:39.934Z,29.65
2023-04-28T06:21:39.947Z,29.62
2023-04-28T06:22:39.961Z,29.87
2023-04-28T06:23:39.960Z,29.87
2023-04-28T06:24:39.977Z,30.02
2023-04-28T06:25:39.978Z,29.96
2023-04-28T06:26:39.986Z,29.80
2023-04-28T06:27:39.990Z,29.58
2023-04-28T06:28:40.016Z,29.80
2023-04-28T06:29:40.005Z,29.96
2023-04-28T06:30:40.018Z,30.03
2023-04-28T06:31:40.447Z,30.18
2023-04-28T06:32:40.034Z,30.34
2023-04-28T06:33:40.031Z,30.49
2023-04-28T06:34:40.099Z,30.90
2023-04-28T06:35:40.142Z,30.85
2023-04-28T06:36:40.410Z,31.15
2023-04-28T06:37:40.249Z,31.19
2023-04-28T06:38:40.306Z,31.24
2023-04-28T06:39:40.348Z,31.15
2023-04-28T06:40:40.418Z,31.10
2023-04-28T06:41:40.438Z,31.04
2023-04-28T06:42:40.874Z,30.85
2023-04-28T06:43:40.482Z,30.78
2023-04-28T06:44:40.523Z,30.82
2023-04-28T06:45:40.515Z,30.87
2023-04-28T06:46:40.576Z,31.01
2023-04-28T06:47:40.731Z,31.01
2023-04-28T06:48:40.624Z,30.93
2023-04-28T06:49:40.713Z,30.90
2023-04-28T06:50:42.390Z,30.97
2023-04-28T06:51:40.773Z,30.94
2023-04-28T06:52:40.864Z,30.95
2023-04-28T06:53:40.784Z,30.99
2023-04-28T06:54:40.757Z,30.90
2023-04-28T06:55:40.758Z,31.02
2023-04-28T06:56:40.878Z,31.06
2023-04-28T06:57:40.892Z,31.04
2023-04-28T06:58:40.736Z,31.07
2023-04-28T06:59:40.715Z,31.21
2023-04-28T07:00:40.729Z,31.28
2023-04-28T07:01:40.724Z,31.15
2023-04-28T07:02:40.860Z,31.01
2023-04-28T07:03:40.775Z,31.16
2023-04-28T07:04:40.702Z,30.94
2023-04-28T07:05:40.678Z,30.92
2023-04-28T07:06:40.686Z,31.05
2023-04-28T07:07:40.896Z,31.06
2023-04-28T07:08:40.688Z,31.03
2023-04-28T07:09:40.683Z,30.90
2023-04-28T07:10:40.673Z,30.92
2023-04-28T07:11:40.644Z,30.96
2023-04-28T07:12:40.647Z,30.96
2023-04-28T07:13:40.643Z,30.90
2023-04-28T07:14:40.642Z,30.90
2023-04-28T07:15:40.625Z,31.13
2023-04-28T07:16:40.670Z,31.13
2023-04-28T07:17:40.944Z,30.95
2023-04-28T07:18:40.605Z,31.08
2023-04-28T07:19:40.723Z,30.88
2023-04-28T07:20:40.599Z,31.13
2023-04-28T07:21:40.605Z,31.14
2023-04-28T07:22:40.573Z,31.21
2023-04-28T07:23:40.581Z,31.36
2023-04-28T07:24:40.578Z,31.16
2023-04-28T07:25:40.582Z,31.23
2023-04-28T07:26:40.903Z,31.40
2023-04-28T07:27:40.552Z,31.59
2023-04-28T07:28:40.533Z,31.37
2023-04-28T07:29:40.540Z,31.37
2023-04-28T07:30:40.535Z,30.97
2023-04-28T07:31:40.537Z,30.75
2023-04-28T07:32:40.902Z,31.03
2023-04-28T07:33:40.518Z,31.02
2023-04-28T07:34:40.687Z,31.06
2023-04-28T07:35:40.500Z,30.59
2023-04-28T07:36:40.489Z,30.83
2023-04-28T07:37:40.472Z,31.28
2023-04-28T07:38:40.515Z,31.32
2023-04-28T07:39:40.563Z,30.92
2023-04-28T07:40:40.539Z,30.72
2023-04-28T07:41:40.600Z,31.32
2023-04-28T07:42:40.664Z,31.40
2023-04-28T07:43:40.707Z,31.14
2023-04-28T07:44:40.779Z,30.89
2023-04-28T07:45:40.860Z,30.96
2023-04-28T07:46:40.850Z,30.89
2023-04-28T07:47:40.950Z,30.96
2023-04-28T07:48:41.394Z,31.07
2023-04-28T07:49:40.977Z,30.95
2023-04-28T07:50:41.023Z,30.95
2023-04-28T07:51:41.073Z,31.18
2023-04-28T07:52:41.374Z,31.19
2023-04-28T07:53:41.371Z,31.14
2023-04-28T07:54:41.116Z,31.03
2023-04-28T07:55:41.124Z,31.16
2023-04-28T07:56:41.164Z,31.02
2023-04-28T07:57:41.172Z,31.13
2023-04-28T07:58:41.371Z,31.07
2023-04-28T07:59:41.185Z,31.18
2023-04-28T08:00:41.365Z,31.09
2023-04-28T08:01:41.242Z,31.09
2023-04-28T08:02:41.361Z,31.20
2023-04-28T08:03:41.459Z,31.16
2023-04-28T08:04:41.478Z,31.23
2023-04-28T08:05:41.415Z,31.27
2023-04-28T08:06:41.277Z,31.33
2023-04-28T08:07:41.400Z,31.33
2023-04-28T08:08:41.386Z,31.41
2023-04-28T08:09:41.812Z,31.28
2023-04-28T08:10:41.259Z,31.37
2023-04-28T08:11:41.274Z,31.35
2023-04-28T08:12:41.261Z,31.43
2023-04-28T08:13:41.259Z,31.34
2023-04-28T08:14:41.283Z,31.33
2023-04-28T08:15:41.327Z,31.42
2023-04-28T08:16:41.508Z,31.36
2023-04-28T08:17:41.379Z,31.48
2023-04-28T08:18:41.517Z,31.46
2023-04-28T08:19:41.386Z,31.66
2023-04-28T08:20:41.400Z,31.49
2023-04-28T08:21:41.415Z,31.51
2023-04-28T08:22:41.457Z,31.49
2023-04-28T08:23:41.892Z,31.11
2023-04-28T08:24:41.532Z,30.31
2023-04-28T08:25:41.534Z,30.15
2023-04-28T08:26:41.567Z,30.13
2023-04-28T08:27:41.619Z,30.10
2023-04-28T08:28:41.619Z,30.38
2023-04-28T08:29:41.672Z,30.39
2023-04-28T08:30:41.735Z,30.37
2023-04-28T08:31:41.811Z,30.89
2023-04-28T08:32:41.851Z,30.95
2023-04-28T08:33:41.888Z,31.27
2023-04-28T08:34:41.828Z,31.02
2023-04-28T08:35:41.826Z,31.21
2023-04-28T08:36:41.859Z,31.26
2023-04-28T08:37:41.874Z,31.58
2023-04-28T08:38:41.932Z,31.43
2023-04-28T08:39:41.949Z,31.41
2023-04-28T08:40:41.922Z,31.23
2023-04-28T08:41:41.942Z,31.28
2023-04-28T08:42:42.020Z,31.37
2023-04-28T08:43:42.096Z,31.45
2023-04-28T08:44:42.155Z,31.60
2023-04-28T08:45:42.178Z,31.62
2023-04-28T08:46:42.271Z,31.98
2023-04-28T08:47:42.261Z,32.09
2023-04-28T08:48:42.230Z,32.51
2023-04-28T08:49:42.268Z,32.42
2023-04-28T08:50:42.322Z,31.99
2023-04-28T08:51:42.338Z,31.57
2023-04-28T08:52:42.334Z,31.49
2023-04-28T08:54:06.114Z,31.62
2023-04-28T08:54:43.312Z,31.58
2023-04-28T08:55:42.321Z,31.67
2023-04-28T08:56:42.320Z,31.39
2023-04-28T08:57:42.321Z,31.82
2023-04-28T08:58:42.276Z,31.73
2023-04-28T08:59:42.298Z,31.80
2023-04-28T09:00:42.291Z,31.54
2023-04-28T09:01:42.276Z,31.53
2023-04-28T09:02:42.650Z,31.67
2023-04-28T09:03:42.394Z,31.54
2023-04-28T09:04:42.425Z,31.50
2023-04-28T09:05:42.289Z,31.62
2023-04-28T09:06:42.216Z,31.72
2023-04-28T09:07:42.222Z,31.72
2023-04-28T09:08:42.206Z,31.56
2023-04-28T09:09:42.209Z,31.49
2023-04-28T09:10:42.208Z,31.44
2023-04-28T09:11:42.169Z,31.49
2023-04-28T09:12:42.394Z,31.36
2023-04-28T09:13:42.224Z,31.54
2023-04-28T09:14:42.225Z,31.48
2023-04-28T09:15:42.294Z,31.49
2023-04-28T09:16:42.425Z,31.69
2023-04-28T09:17:42.389Z,31.44
2023-04-28T09:18:42.390Z,31.59
2023-04-28T09:19:42.402Z,31.56
2023-04-28T09:20:42.461Z,31.64
2023-04-28T09:21:42.504Z,31.64
2023-04-28T09:22:42.550Z,31.68
2023-04-28T09:23:42.619Z,31.60
2023-04-28T09:24:42.611Z,31.72
2023-04-28T09:25:42.654Z,31.60
2023-04-28T09:26:42.738Z,32.22
2023-04-28T09:27:42.760Z,32.17
2023-04-28T09:28:42.915Z,32.15
2023-04-28T09:29:42.761Z,32.38
2023-04-28T09:30:42.856Z,32.25
2023-04-28T09:31:42.880Z,32.11
2023-04-28T09:32:43.434Z,31.97
2023-04-28T09:33:42.964Z,31.90
2023-04-28T09:34:43.004Z,31.94
2023-04-28T09:35:43.084Z,32.00
2023-04-28T09:36:43.093Z,32.13
2023-04-28T09:37:43.427Z,32.15
2023-04-28T09:38:43.397Z,32.26
2023-04-28T09:39:43.142Z,32.17
2023-04-28T09:40:43.162Z,31.85
2023-04-28T09:41:43.149Z,32.06
2023-04-28T09:42:43.198Z,32.05
2023-04-28T09:43:43.189Z,32.03
2023-04-28T09:44:43.181Z,31.88
2023-04-28T09:45:43.232Z,32.16
2023-04-28T09:46:43.205Z,32.06
2023-04-28T09:47:43.459Z,32.27
2023-04-28T09:48:43.226Z,32.04
2023-04-28T09:49:43.233Z,32.23
2023-04-28T09:50:43.227Z,32.08
2023-04-28T09:51:43.274Z,32.14
2023-04-28T09:52:43.355Z,32.02
2023-04-28T09:53:43.413Z,32.20
2023-04-28T09:54:43.446Z,32.31
2023-04-28T09:55:43.533Z,32.49
2023-04-28T09:56:43.572Z,32.40
2023-04-28T09:57:43.614Z,32.39
2023-04-28T09:58:43.901Z,32.38
2023-04-28T09:59:43.705Z,32.29
2023-04-28T10:00:43.735Z,32.32
2023-04-28T10:01:43.911Z,32.14
2023-04-28T10:02:44.343Z,32.10
2023-04-28T10:03:43.961Z,31.88
2023-04-28T10:04:43.882Z,31.75
2023-04-28T10:05:43.917Z,31.77
2023-04-28T10:06:43.829Z,31.76
2023-04-28T10:07:43.835Z,31.81
2023-04-28T10:08:43.828Z,31.72
2023-04-28T10:09:43.815Z,31.69
2023-04-28T10:10:43.796Z,31.93
2023-04-28T10:11:43.878Z,31.97
2023-04-28T10:12:43.883Z,31.99
2023-04-28T10:13:43.932Z,31.86
2023-04-28T10:14:44.213Z,31.70
2023-04-28T10:15:44.087Z,31.68
2023-04-28T10:16:44.113Z,31.62
2023-04-28T10:17:44.182Z,31.88
2023-04-28T10:18:44.239Z,31.90
2023-04-28T10:19:44.294Z,31.94
2023-04-28T10:20:44.391Z,31.87
2023-04-28T10:21:44.437Z,31.99
2023-04-28T10:22:44.479Z,31.81
2023-04-28T10:23:44.907Z,31.99
2023-04-28T10:24:44.586Z,32.27
2023-04-28T10:25:44.632Z,32.39
2023-04-28T10:26:44.709Z,32.19
2023-04-28T10:27:44.771Z,32.14
2023-04-28T10:28:44.824Z,32.31
2023-04-28T10:29:44.857Z,32.25
2023-04-28T10:30:44.908Z,32.43
2023-04-28T10:31:44.956Z,32.45
2023-04-28T10:32:45.019Z,32.48
2023-04-28T10:33:45.025Z,32.36
2023-04-28T10:34:45.043Z,32.61
2023-04-28T10:35:45.117Z,32.53
2023-04-28T10:36:45.130Z,32.47
2023-04-28T10:37:45.145Z,32.48
2023-04-28T10:38:45.167Z,32.61
2023-04-28T10:39:45.168Z,32.50
2023-04-28T10:40:45.220Z,32.48
2023-04-28T10:41:45.240Z,32.36
2023-04-28T10:42:45.233Z,32.43
2023-04-28T10:43:45.288Z,32.51
2023-04-28T10:44:45.285Z,32.53
2023-04-28T10:45:45.313Z,32.63
2023-04-28T10:46:45.325Z,32.55
2023-04-28T10:47:45.383Z,32.61
2023-04-28T10:48:45.352Z,32.70
2023-04-28T10:49:45.355Z,32.64
2023-04-28T10:50:45.368Z,32.73
2023-04-28T10:51:45.404Z,32.75
2023-04-28T10:52:45.413Z,32.67
2023-04-28T10:53:45.770Z,32.71
2023-04-28T10:54:45.439Z,32.70
2023-04-28T10:55:45.429Z,32.68
2023-04-28T10:56:45.447Z,32.77
2023-04-28T10:57:45.434Z,32.74
2023-04-28T10:58:45.455Z,32.74
2023-04-28T10:59:45.482Z,32.76
2023-04-28T11:00:45.470Z,32.80
2023-04-28T11:01:45.464Z,32.88
2023-04-28T11:02:45.638Z,32.89
2023-04-28T11:03:45.576Z,32.90
2023-04-28T11:04:45.729Z,32.90
2023-04-28T11:05:45.437Z,32.98
2023-04-28T11:06:45.439Z,33.20
2023-04-28T11:07:45.444Z,33.26
2023-04-28T11:08:45.925Z,33.26
2023-04-28T11:09:45.447Z,33.60
2023-04-28T11:10:45.446Z,33.41
2023-04-28T11:11:45.435Z,33.43
2023-04-28T11:12:45.477Z,33.55
2023-04-28T11:13:45.941Z,33.57
2023-04-28T11:14:45.472Z,33.55
2023-04-28T11:15:45.471Z,33.42
2023-04-28T11:16:45.533Z,33.55
2023-04-28T11:17:45.523Z,33.37
2023-04-28T11:18:45.935Z,32.94
2023-04-28T11:19:45.517Z,32.92
2023-04-28T11:20:45.531Z,33.04
2023-04-28T11:21:45.556Z,32.87
2023-04-28T11:22:45.567Z,32.87
2023-04-28T11:23:45.938Z,33.49
2023-04-28T11:24:45.616Z,33.37
2023-04-28T11:25:45.657Z,33.45
2023-04-28T11:26:45.690Z,33.33
2023-04-28T11:27:45.699Z,33.19
2023-04-28T11:28:45.755Z,33.08
2023-04-28T11:29:45.757Z,33.07
2023-04-28T11:30:45.797Z,33.09
2023-04-28T11:31:45.867Z,33.12
2023-04-28T11:32:45.906Z,33.02
2023-04-28T11:33:45.877Z,33.02
2023-04-28T11:34:45.891Z,33.06
2023-04-28T11:35:45.918Z,33.35
2023-04-28T11:36:45.978Z,33.26
2023-04-28T11:37:45.972Z,33.28
2023-04-28T11:38:46.007Z,33.26
2023-04-28T11:39:46.044Z,32.63
2023-04-28T11:40:46.081Z,32.52
2023-04-28T11:41:46.117Z,32.78
2023-04-28T11:42:46.159Z,32.59
2023-04-28T11:43:47.715Z,32.68
2023-04-28T11:44:46.233Z,32.44
2023-04-28T11:45:46.258Z,32.53
2023-04-28T11:46:46.294Z,32.51
2023-04-28T11:47:46.387Z,32.38
2023-04-28T11:48:46.390Z,32.42
2023-04-28T11:49:46.421Z,32.21
2023-04-28T11:50:46.457Z,32.20
2023-04-28T11:51:46.535Z,32.33
2023-04-28T11:52:46.560Z,32.23
2023-04-28T11:53:46.605Z,32.26
2023-04-28T11:54:46.650Z,32.32
2023-04-28T11:55:46.676Z,32.15
2023-04-28T11:56:46.721Z,32.31
2023-04-28T11:57:46.785Z,32.79
2023-04-28T11:58:46.816Z,32.82
2023-04-28T11:59:47.093Z,32.75
2023-04-28T12:00:46.891Z,32.79
2023-04-28T12:01:46.955Z,32.72
2023-04-28T12:02:47.145Z,32.73
2023-04-28T12:03:47.117Z,32.71
2023-04-28T12:04:47.096Z,32.65
2023-04-28T12:05:47.186Z,32.63
2023-04-28T12:06:47.177Z,32.45
2023-04-28T12:07:47.231Z,32.48
2023-04-28T12:08:47.289Z,32.55
2023-04-28T12:09:47.341Z,32.52
2023-04-28T12:10:47.387Z,32.45
2023-04-28T12:11:47.435Z,32.44
2023-04-28T12:12:51.603Z,32.44
2023-04-28T12:13:48.459Z,32.37
2023-04-28T12:14:47.463Z,32.39
2023-04-28T12:15:47.500Z,32.25
2023-04-28T12:16:47.458Z,32.19
2023-04-28T12:17:47.532Z,32.21
2023-04-28T12:18:47.428Z,32.25
2023-04-28T12:19:47.419Z,32.23
2023-04-28T12:20:47.434Z,32.20
2023-04-28T12:21:47.431Z,32.19
2023-04-28T12:22:47.414Z,32.21
2023-04-28T12:23:47.413Z,32.11
2023-04-28T12:24:47.388Z,31.92
2023-04-28T12:25:47.461Z,32.64
2023-04-28T12:26:47.532Z,33.07
2023-04-28T12:27:47.562Z,32.76
2023-04-28T12:28:47.610Z,32.54
2023-04-28T12:29:47.648Z,32.45
